sensor_id;sensor_type;location;lat;lon;timestamp;temperature;humidity
22235;DHT22;11286;45.596;5.284;2022-12-08T00:00:54;5.00;99.90
22235;DHT22;11286;45.596;5.284;2022-12-08T00:03:20;4.90;99.90
22235;DHT22;11286;45.596;5.284;2022-12-08T00:05:49;5.00;99.90
22235;DHT22;11286;45.596;5.284;2022-12-08T00:08:33;4.90;99.90
22235;DHT22;11286;45.596;5.284;2022-12-08T00:11:18;4.90;99.90
22235;DHT22;11286;45.596;5.284;2022-12-08T00:13:44;4.80;99.90
22235;DHT22;11286;45.596;5.284;2022-12-08T00:16:10;4.90;99.90
22235;DHT22;11286;45.596;5.284;2022-12-08T00:18:37;4.90;99.90
22235;DHT22;11286;45.596;5.284;2022-12-08T00:21:02;4.90;99.90
22235;DHT22;11286;45.596;5.284;2022-12-08T00:23:28;4.80;99.90
22235;DHT22;11286;45.596;5.284;2022-12-08T00:25:54;4.80;99.90
22235;DHT22;11286;45.596;5.284;2022-12-08T00:28:20;4.90;99.90
22235;DHT22;11286;45.596;5.284;2022-12-08T00:30:45;4.80;99.90
22235;DHT22;11286;45.596;5.284;2022-12-08T00:33:11;4.90;99.90
22235;DHT22;11286;45.596;5.284;2022-12-08T00:35:37;4.90;99.90
22235;DHT22;11286;45.596;5.284;2022-12-08T00:38:03;4.90;99.90
22235;DHT22;11286;45.596;5.284;2022-12-08T00:40:28;4.80;99.90
22235;DHT22;11286;45.596;5.284;2022-12-08T00:42:54;4.90;99.90
22235;DHT22;11286;45.596;5.284;2022-12-08T00:45:20;5.00;99.90
22235;DHT22;11286;45.596;5.284;2022-12-08T00:47:45;4.70;99.90
22235;DHT22;11286;45.596;5.284;2022-12-08T00:50:11;4.70;99.90
22235;DHT22;11286;45.596;5.284;2022-12-08T00:52:37;4.80;99.90
22235;DHT22;11286;45.596;5.284;2022-12-08T00:55:03;4.70;99.90
22235;DHT22;11286;45.596;5.284;2022-12-08T00:57:29;4.80;99.90
22235;DHT22;11286;45.596;5.284;2022-12-08T00:59:55;4.80;99.90
22235;DHT22;11286;45.596;5.284;2022-12-08T01:02:21;4.80;99.90
22235;DHT22;11286;45.596;5.284;2022-12-08T01:04:47;4.80;99.90
22235;DHT22;11286;45.596;5.284;2022-12-08T01:07:12;4.80;99.90
22235;DHT22;11286;45.596;5.284;2022-12-08T01:09:38;4.70;99.90
22235;DHT22;11286;45.596;5.284;2022-12-08T01:12:05;4.80;99.90
22235;DHT22;11286;45.596;5.284;2022-12-08T01:14:30;4.70;99.90
22235;DHT22;11286;45.596;5.284;2022-12-08T01:16:56;4.80;99.90
22235;DHT22;11286;45.596;5.284;2022-12-08T01:19:22;4.90;99.90
22235;DHT22;11286;45.596;5.284;2022-12-08T01:21:47;4.70;99.90
22235;DHT22;11286;45.596;5.284;2022-12-08T01:24:19;5.30;99.90
22235;DHT22;11286;45.596;5.284;2022-12-08T01:26:45;4.80;99.90
22235;DHT22;11286;45.596;5.284;2022-12-08T01:29:11;4.80;99.90
22235;DHT22;11286;45.596;5.284;2022-12-08T01:31:37;4.80;99.90
22235;DHT22;11286;45.596;5.284;2022-12-08T01:34:03;4.80;99.90
22235;DHT22;11286;45.596;5.284;2022-12-08T01:36:31;4.80;99.90
22235;DHT22;11286;45.596;5.284;2022-12-08T01:38:59;4.80;99.90
22235;DHT22;11286;45.596;5.284;2022-12-08T01:41:27;4.80;99.90
22235;DHT22;11286;45.596;5.284;2022-12-08T01:46:34;4.70;99.90
22235;DHT22;11286;45.596;5.284;2022-12-08T01:49:11;4.70;99.90
22235;DHT22;11286;45.596;5.284;2022-12-08T01:51:51;4.70;99.90
22235;DHT22;11286;45.596;5.284;2022-12-08T01:54:18;4.70;99.90
22235;DHT22;11286;45.596;5.284;2022-12-08T01:59:21;4.70;99.90
22235;DHT22;11286;45.596;5.284;2022-12-08T02:01:47;4.70;99.90
22235;DHT22;11286;45.596;5.284;2022-12-08T02:04:13;4.70;99.90
22235;DHT22;11286;45.596;5.284;2022-12-08T02:06:41;4.70;99.90
22235;DHT22;11286;45.596;5.284;2022-12-08T02:09:07;4.60;99.90
22235;DHT22;11286;45.596;5.284;2022-12-08T02:11:34;4.80;99.90
22235;DHT22;11286;45.596;5.284;2022-12-08T02:14:03;4.70;99.90
22235;DHT22;11286;45.596;5.284;2022-12-08T02:24:46;4.40;99.90
22235;DHT22;11286;45.596;5.284;2022-12-08T02:33:57;4.40;99.90
22235;DHT22;11286;45.596;5.284;2022-12-08T02:36:20;4.40;99.90
22235;DHT22;11286;45.596;5.284;2022-12-08T02:44:16;4.10;99.90
22235;DHT22;11286;45.596;5.284;2022-12-08T02:46:51;4.20;99.90
22235;DHT22;11286;45.596;5.284;2022-12-08T02:49:18;4.20;99.90
22235;DHT22;11286;45.596;5.284;2022-12-08T02:51:44;4.20;99.90
22235;DHT22;11286;45.596;5.284;2022-12-08T02:54:10;4.20;99.90
22235;DHT22;11286;45.596;5.284;2022-12-08T02:59:21;4.20;99.90
22235;DHT22;11286;45.596;5.284;2022-12-08T03:07:22;4.40;99.90
22235;DHT22;11286;45.596;5.284;2022-12-08T03:09:49;4.30;99.90
22235;DHT22;11286;45.596;5.284;2022-12-08T03:13:08;4.20;99.90
22235;DHT22;11286;45.596;5.284;2022-12-08T03:15:17;4.30;99.90
22235;DHT22;11286;45.596;5.284;2022-12-08T03:17:49;4.30;99.90
22235;DHT22;11286;45.596;5.284;2022-12-08T03:20:20;4.30;99.90
22235;DHT22;11286;45.596;5.284;2022-12-08T03:22:47;4.30;99.90
22235;DHT22;11286;45.596;5.284;2022-12-08T03:25:14;4.20;99.90
22235;DHT22;11286;45.596;5.284;2022-12-08T03:27:41;4.20;99.90
22235;DHT22;11286;45.596;5.284;2022-12-08T03:30:07;4.20;99.90
22235;DHT22;11286;45.596;5.284;2022-12-08T03:35:08;4.30;99.90
22235;DHT22;11286;45.596;5.284;2022-12-08T03:37:35;4.30;99.90
22235;DHT22;11286;45.596;5.284;2022-12-08T03:40:03;4.40;99.90
22235;DHT22;11286;45.596;5.284;2022-12-08T03:42:29;4.40;99.90
22235;DHT22;11286;45.596;5.284;2022-12-08T03:44:55;4.30;99.90
22235;DHT22;11286;45.596;5.284;2022-12-08T03:47:21;4.40;99.90
22235;DHT22;11286;45.596;5.284;2022-12-08T03:49:46;4.40;99.90
22235;DHT22;11286;45.596;5.284;2022-12-08T03:52:12;4.40;99.90
22235;DHT22;11286;45.596;5.284;2022-12-08T03:54:37;4.40;99.90
22235;DHT22;11286;45.596;5.284;2022-12-08T03:57:03;4.40;99.90
22235;DHT22;11286;45.596;5.284;2022-12-08T03:59:29;4.40;99.90
22235;DHT22;11286;45.596;5.284;2022-12-08T04:01:54;4.40;99.90
22235;DHT22;11286;45.596;5.284;2022-12-08T04:04:20;4.40;99.90
22235;DHT22;11286;45.596;5.284;2022-12-08T04:06:45;4.30;99.90
22235;DHT22;11286;45.596;5.284;2022-12-08T04:09:11;4.40;99.90
22235;DHT22;11286;45.596;5.284;2022-12-08T04:11:37;4.40;99.90
22235;DHT22;11286;45.596;5.284;2022-12-08T04:14:03;4.30;99.90
22235;DHT22;11286;45.596;5.284;2022-12-08T04:16:29;4.30;99.90
22235;DHT22;11286;45.596;5.284;2022-12-08T04:18:54;4.30;99.90
22235;DHT22;11286;45.596;5.284;2022-12-08T04:21:20;4.30;99.90
22235;DHT22;11286;45.596;5.284;2022-12-08T04:23:46;4.80;99.90
22235;DHT22;11286;45.596;5.284;2022-12-08T04:26:12;4.30;99.90
22235;DHT22;11286;45.596;5.284;2022-12-08T04:28:38;4.20;99.90
22235;DHT22;11286;45.596;5.284;2022-12-08T04:31:04;4.20;99.90
22235;DHT22;11286;45.596;5.284;2022-12-08T04:33:30;4.20;99.90
22235;DHT22;11286;45.596;5.284;2022-12-08T04:35:56;4.20;99.90
22235;DHT22;11286;45.596;5.284;2022-12-08T04:38:21;4.20;99.90
22235;DHT22;11286;45.596;5.284;2022-12-08T04:40:47;4.10;99.90
22235;DHT22;11286;45.596;5.284;2022-12-08T04:43:13;4.40;99.90
22235;DHT22;11286;45.596;5.284;2022-12-08T04:45:40;4.20;99.90
22235;DHT22;11286;45.596;5.284;2022-12-08T04:48:06;4.20;99.90
22235;DHT22;11286;45.596;5.284;2022-12-08T04:50:32;4.10;99.90
22235;DHT22;11286;45.596;5.284;2022-12-08T04:52:57;4.20;99.90
22235;DHT22;11286;45.596;5.284;2022-12-08T04:55:23;4.10;99.90
22235;DHT22;11286;45.596;5.284;2022-12-08T04:57:49;4.10;99.90
22235;DHT22;11286;45.596;5.284;2022-12-08T05:00:15;4.00;99.90
22235;DHT22;11286;45.596;5.284;2022-12-08T05:02:41;4.00;99.90
22235;DHT22;11286;45.596;5.284;2022-12-08T05:05:07;4.10;99.90
22235;DHT22;11286;45.596;5.284;2022-12-08T05:07:32;4.10;99.90
22235;DHT22;11286;45.596;5.284;2022-12-08T05:09:58;4.10;99.90
22235;DHT22;11286;45.596;5.284;2022-12-08T05:12:24;4.20;99.90
22235;DHT22;11286;45.596;5.284;2022-12-08T05:14:50;4.10;99.90
22235;DHT22;11286;45.596;5.284;2022-12-08T05:17:16;4.00;99.90
22235;DHT22;11286;45.596;5.284;2022-12-08T05:19:42;4.10;99.90
22235;DHT22;11286;45.596;5.284;2022-12-08T05:22:08;4.10;99.90
22235;DHT22;11286;45.596;5.284;2022-12-08T05:24:33;4.10;99.90
22235;DHT22;11286;45.596;5.284;2022-12-08T05:26:59;4.00;99.90
22235;DHT22;11286;45.596;5.284;2022-12-08T05:29:25;3.90;99.90
22235;DHT22;11286;45.596;5.284;2022-12-08T05:31:51;4.00;99.90
22235;DHT22;11286;45.596;5.284;2022-12-08T05:34:16;4.00;99.90
22235;DHT22;11286;45.596;5.284;2022-12-08T05:36:42;4.10;99.90
22235;DHT22;11286;45.596;5.284;2022-12-08T05:39:11;4.30;99.90
22235;DHT22;11286;45.596;5.284;2022-12-08T05:41:38;4.00;99.90
22235;DHT22;11286;45.596;5.284;2022-12-08T05:44:03;4.20;99.90
22235;DHT22;11286;45.596;5.284;2022-12-08T05:46:29;4.10;99.90
22235;DHT22;11286;45.596;5.284;2022-12-08T05:48:54;4.10;99.90
22235;DHT22;11286;45.596;5.284;2022-12-08T05:51:22;4.10;99.90
22235;DHT22;11286;45.596;5.284;2022-12-08T05:53:49;4.20;99.90
22235;DHT22;11286;45.596;5.284;2022-12-08T05:56:15;4.10;99.90
22235;DHT22;11286;45.596;5.284;2022-12-08T05:58:41;4.10;99.90
22235;DHT22;11286;45.596;5.284;2022-12-08T06:01:12;4.00;99.90
22235;DHT22;11286;45.596;5.284;2022-12-08T06:03:41;4.10;99.90
22235;DHT22;11286;45.596;5.284;2022-12-08T06:06:07;4.30;99.90
22235;DHT22;11286;45.596;5.284;2022-12-08T06:08:33;4.00;99.90
22235;DHT22;11286;45.596;5.284;2022-12-08T06:10:59;4.00;99.90
22235;DHT22;11286;45.596;5.284;2022-12-08T06:13:24;3.90;99.90
22235;DHT22;11286;45.596;5.284;2022-12-08T06:15:50;4.00;99.90
22235;DHT22;11286;45.596;5.284;2022-12-08T06:18:15;3.90;99.90
22235;DHT22;11286;45.596;5.284;2022-12-08T06:20:41;3.80;99.90
22235;DHT22;11286;45.596;5.284;2022-12-08T06:23:06;3.80;99.90
22235;DHT22;11286;45.596;5.284;2022-12-08T06:25:32;4.00;99.90
22235;DHT22;11286;45.596;5.284;2022-12-08T06:27:58;3.80;99.90
22235;DHT22;11286;45.596;5.284;2022-12-08T06:30:23;3.70;99.90
22235;DHT22;11286;45.596;5.284;2022-12-08T06:32:49;3.80;99.90
22235;DHT22;11286;45.596;5.284;2022-12-08T06:35:14;3.80;99.90
22235;DHT22;11286;45.596;5.284;2022-12-08T06:37:40;3.90;99.90
22235;DHT22;11286;45.596;5.284;2022-12-08T06:40:06;3.80;99.90
22235;DHT22;11286;45.596;5.284;2022-12-08T06:42:32;3.80;99.90
22235;DHT22;11286;45.596;5.284;2022-12-08T06:45:15;3.90;99.90
22235;DHT22;11286;45.596;5.284;2022-12-08T06:47:41;3.90;99.90
22235;DHT22;11286;45.596;5.284;2022-12-08T06:50:08;3.80;99.90
22235;DHT22;11286;45.596;5.284;2022-12-08T06:52:34;3.80;99.90
22235;DHT22;11286;45.596;5.284;2022-12-08T06:54:59;3.90;99.90
22235;DHT22;11286;45.596;5.284;2022-12-08T06:57:25;3.90;99.90
22235;DHT22;11286;45.596;5.284;2022-12-08T06:59:51;3.90;99.90
22235;DHT22;11286;45.596;5.284;2022-12-08T07:02:16;3.90;99.90
22235;DHT22;11286;45.596;5.284;2022-12-08T07:04:42;4.00;99.90
22235;DHT22;11286;45.596;5.284;2022-12-08T07:07:08;3.90;99.90
22235;DHT22;11286;45.596;5.284;2022-12-08T07:09:34;3.90;99.90
22235;DHT22;11286;45.596;5.284;2022-12-08T07:12:02;4.00;99.90
22235;DHT22;11286;45.596;5.284;2022-12-08T07:14:27;4.00;99.90
22235;DHT22;11286;45.596;5.284;2022-12-08T07:16:53;4.00;99.90
22235;DHT22;11286;45.596;5.284;2022-12-08T07:19:19;3.90;99.90
22235;DHT22;11286;45.596;5.284;2022-12-08T07:21:44;3.90;99.90
22235;DHT22;11286;45.596;5.284;2022-12-08T07:24:10;3.90;99.90
22235;DHT22;11286;45.596;5.284;2022-12-08T07:26:36;3.80;99.90
22235;DHT22;11286;45.596;5.284;2022-12-08T07:29:02;4.00;99.90
22235;DHT22;11286;45.596;5.284;2022-12-08T07:31:30;4.00;99.90
22235;DHT22;11286;45.596;5.284;2022-12-08T07:33:56;4.00;99.90
22235;DHT22;11286;45.596;5.284;2022-12-08T07:36:23;4.10;99.90
22235;DHT22;11286;45.596;5.284;2022-12-08T07:38:49;4.10;99.90
22235;DHT22;11286;45.596;5.284;2022-12-08T07:41:17;4.10;99.90
22235;DHT22;11286;45.596;5.284;2022-12-08T07:43:43;4.10;99.90
22235;DHT22;11286;45.596;5.284;2022-12-08T07:46:17;4.20;99.90
22235;DHT22;11286;45.596;5.284;2022-12-08T07:48:43;4.10;99.90
22235;DHT22;11286;45.596;5.284;2022-12-08T07:51:11;4.10;99.90
22235;DHT22;11286;45.596;5.284;2022-12-08T07:53:39;4.20;99.90
22235;DHT22;11286;45.596;5.284;2022-12-08T07:56:06;4.20;99.90
22235;DHT22;11286;45.596;5.284;2022-12-08T07:58:32;4.20;99.90
22235;DHT22;11286;45.596;5.284;2022-12-08T08:00:57;4.20;99.90
22235;DHT22;11286;45.596;5.284;2022-12-08T08:03:23;4.30;99.90
22235;DHT22;11286;45.596;5.284;2022-12-08T08:05:49;4.20;99.90
22235;DHT22;11286;45.596;5.284;2022-12-08T08:08:15;4.20;99.90
22235;DHT22;11286;45.596;5.284;2022-12-08T08:10:41;4.30;99.90
22235;DHT22;11286;45.596;5.284;2022-12-08T08:13:08;4.40;99.90
22235;DHT22;11286;45.596;5.284;2022-12-08T08:15:33;4.50;99.90
22235;DHT22;11286;45.596;5.284;2022-12-08T08:17:59;4.40;99.90
22235;DHT22;11286;45.596;5.284;2022-12-08T08:20:25;4.40;99.90
22235;DHT22;11286;45.596;5.284;2022-12-08T08:22:51;4.60;99.90
22235;DHT22;11286;45.596;5.284;2022-12-08T08:25:18;4.90;99.90
22235;DHT22;11286;45.596;5.284;2022-12-08T08:27:44;4.70;99.90
22235;DHT22;11286;45.596;5.284;2022-12-08T08:30:12;4.80;99.90
22235;DHT22;11286;45.596;5.284;2022-12-08T08:32:38;4.90;99.90
22235;DHT22;11286;45.596;5.284;2022-12-08T08:35:04;4.90;99.90
22235;DHT22;11286;45.596;5.284;2022-12-08T08:37:30;5.10;99.90
22235;DHT22;11286;45.596;5.284;2022-12-08T08:39:56;5.20;99.90
22235;DHT22;11286;45.596;5.284;2022-12-08T08:42:21;5.40;99.90
22235;DHT22;11286;45.596;5.284;2022-12-08T08:44:47;5.40;99.90
22235;DHT22;11286;45.596;5.284;2022-12-08T08:47:13;5.30;99.90
22235;DHT22;11286;45.596;5.284;2022-12-08T08:49:39;5.40;99.90
22235;DHT22;11286;45.596;5.284;2022-12-08T08:52:05;5.30;99.90
22235;DHT22;11286;45.596;5.284;2022-12-08T08:54:31;5.10;99.90
22235;DHT22;11286;45.596;5.284;2022-12-08T08:56:57;4.90;99.90
22235;DHT22;11286;45.596;5.284;2022-12-08T08:59:24;4.90;99.90
22235;DHT22;11286;45.596;5.284;2022-12-08T09:01:50;5.00;99.90
22235;DHT22;11286;45.596;5.284;2022-12-08T09:04:15;5.30;99.90
22235;DHT22;11286;45.596;5.284;2022-12-08T09:06:41;5.40;99.90
22235;DHT22;11286;45.596;5.284;2022-12-08T09:09:08;5.50;99.90
22235;DHT22;11286;45.596;5.284;2022-12-08T09:11:34;5.70;99.90
22235;DHT22;11286;45.596;5.284;2022-12-08T09:13:59;5.60;99.90
22235;DHT22;11286;45.596;5.284;2022-12-08T09:16:25;5.70;99.90
22235;DHT22;11286;45.596;5.284;2022-12-08T09:18:51;5.40;99.90
22235;DHT22;11286;45.596;5.284;2022-12-08T09:21:21;5.70;99.90
22235;DHT22;11286;45.596;5.284;2022-12-08T09:23:51;6.00;99.90
22235;DHT22;11286;45.596;5.284;2022-12-08T09:26:17;7.90;99.90
22235;DHT22;11286;45.596;5.284;2022-12-08T09:28:47;10.50;99.90
22235;DHT22;11286;45.596;5.284;2022-12-08T09:31:15;9.60;99.90
22235;DHT22;11286;45.596;5.284;2022-12-08T09:33:41;8.40;99.90
22235;DHT22;11286;45.596;5.284;2022-12-08T09:36:07;7.70;99.90
22235;DHT22;11286;45.596;5.284;2022-12-08T09:38:33;7.10;99.90
22235;DHT22;11286;45.596;5.284;2022-12-08T09:41:01;7.10;99.90
22235;DHT22;11286;45.596;5.284;2022-12-08T09:43:59;6.90;99.90
22235;DHT22;11286;45.596;5.284;2022-12-08T09:46:29;6.70;99.90
22235;DHT22;11286;45.596;5.284;2022-12-08T09:48:57;6.30;99.90
22235;DHT22;11286;45.596;5.284;2022-12-08T09:51:26;6.20;99.90
22235;DHT22;11286;45.596;5.284;2022-12-08T09:54:17;6.20;99.90
22235;DHT22;11286;45.596;5.284;2022-12-08T09:56:45;6.30;99.90
22235;DHT22;11286;45.596;5.284;2022-12-08T10:01:51;6.60;99.90
22235;DHT22;11286;45.596;5.284;2022-12-08T10:07:11;6.40;99.90
22235;DHT22;11286;45.596;5.284;2022-12-08T10:09:51;6.40;99.90
22235;DHT22;11286;45.596;5.284;2022-12-08T10:12:44;6.10;99.90
22235;DHT22;11286;45.596;5.284;2022-12-08T10:15:42;5.90;99.90
22235;DHT22;11286;45.596;5.284;2022-12-08T10:18:29;5.80;99.90
22235;DHT22;11286;45.596;5.284;2022-12-08T10:21:13;5.80;99.90
22235;DHT22;11286;45.596;5.284;2022-12-08T10:23:43;5.80;99.90
22235;DHT22;11286;45.596;5.284;2022-12-08T10:26:13;5.80;99.90
22235;DHT22;11286;45.596;5.284;2022-12-08T10:28:40;5.80;99.90
22235;DHT22;11286;45.596;5.284;2022-12-08T10:31:05;5.80;99.90
22235;DHT22;11286;45.596;5.284;2022-12-08T10:33:32;5.90;99.90
22235;DHT22;11286;45.596;5.284;2022-12-08T10:35:59;6.00;99.90
22235;DHT22;11286;45.596;5.284;2022-12-08T10:38:35;6.10;99.90
22235;DHT22;11286;45.596;5.284;2022-12-08T10:43:47;6.40;99.90
22235;DHT22;11286;45.596;5.284;2022-12-08T10:46:22;6.90;99.90
22235;DHT22;11286;45.596;5.284;2022-12-08T10:48:56;7.40;99.90
22235;DHT22;11286;45.596;5.284;2022-12-08T10:51:38;7.50;99.90
22235;DHT22;11286;45.596;5.284;2022-12-08T10:54:04;7.60;99.90
22235;DHT22;11286;45.596;5.284;2022-12-08T10:56:53;7.70;99.90
22235;DHT22;11286;45.596;5.284;2022-12-08T10:59:19;8.00;99.90
22235;DHT22;11286;45.596;5.284;2022-12-08T11:01:47;8.20;99.90
22235;DHT22;11286;45.596;5.284;2022-12-08T11:04:33;8.80;99.90
22235;DHT22;11286;45.596;5.284;2022-12-08T11:07:02;8.50;99.90
22235;DHT22;11286;45.596;5.284;2022-12-08T11:09:41;8.40;99.90
22235;DHT22;11286;45.596;5.284;2022-12-08T11:17:23;8.00;99.90
22235;DHT22;11286;45.596;5.284;2022-12-08T11:19:58;7.80;99.90
22235;DHT22;11286;45.596;5.284;2022-12-08T11:22:29;7.70;99.90
22235;DHT22;11286;45.596;5.284;2022-12-08T11:27:23;7.70;99.90
22235;DHT22;11286;45.596;5.284;2022-12-08T11:29:49;7.80;99.90
22235;DHT22;11286;45.596;5.284;2022-12-08T11:32:14;7.90;99.90
22235;DHT22;11286;45.596;5.284;2022-12-08T11:34:51;7.70;99.90
22235;DHT22;11286;45.596;5.284;2022-12-08T11:39:53;7.90;99.90
22235;DHT22;11286;45.596;5.284;2022-12-08T11:42:25;7.70;99.90
22235;DHT22;11286;45.596;5.284;2022-12-08T11:44:57;7.90;99.90
22235;DHT22;11286;45.596;5.284;2022-12-08T11:47:30;8.20;99.90
22235;DHT22;11286;45.596;5.284;2022-12-08T11:53:02;8.90;99.90
22235;DHT22;11286;45.596;5.284;2022-12-08T11:55:46;8.80;99.90
22235;DHT22;11286;45.596;5.284;2022-12-08T11:58:20;8.90;99.90
22235;DHT22;11286;45.596;5.284;2022-12-08T12:00:48;8.90;99.90
22235;DHT22;11286;45.596;5.284;2022-12-08T12:04:10;8.90;99.90
22235;DHT22;11286;45.596;5.284;2022-12-08T12:18:32;9.20;99.90
22235;DHT22;11286;45.596;5.284;2022-12-08T12:21:10;9.40;99.90
22235;DHT22;11286;45.596;5.284;2022-12-08T12:23:44;9.80;99.90
22235;DHT22;11286;45.596;5.284;2022-12-08T12:26:24;9.40;99.90
22235;DHT22;11286;45.596;5.284;2022-12-08T12:28:54;9.60;99.90
22235;DHT22;11286;45.596;5.284;2022-12-08T12:31:32;9.10;99.90
22235;DHT22;11286;45.596;5.284;2022-12-08T12:34:16;9.10;99.90
22235;DHT22;11286;45.596;5.284;2022-12-08T12:36:49;9.40;99.90
22235;DHT22;11286;45.596;5.284;2022-12-08T12:39:19;9.40;99.90
22235;DHT22;11286;45.596;5.284;2022-12-08T12:41:58;9.40;99.90
22235;DHT22;11286;45.596;5.284;2022-12-08T12:46:55;9.80;99.90
22235;DHT22;11286;45.596;5.284;2022-12-08T13:05:29;8.20;99.90
22235;DHT22;11286;45.596;5.284;2022-12-08T13:07:59;7.60;99.90
22235;DHT22;11286;45.596;5.284;2022-12-08T13:10:34;7.00;99.90
22235;DHT22;11286;45.596;5.284;2022-12-08T13:18:33;7.20;99.90
22235;DHT22;11286;45.596;5.284;2022-12-08T13:21:11;7.40;99.90
22235;DHT22;11286;45.596;5.284;2022-12-08T13:26:22;7.80;99.90
22235;DHT22;11286;45.596;5.284;2022-12-08T13:31:36;7.80;99.90
22235;DHT22;11286;45.596;5.284;2022-12-08T13:36:41;7.80;99.90
22235;DHT22;11286;45.596;5.284;2022-12-08T13:39:19;8.00;99.90
22235;DHT22;11286;45.596;5.284;2022-12-08T13:41:57;7.80;99.90
22235;DHT22;11286;45.596;5.284;2022-12-08T13:44:34;7.20;99.90
22235;DHT22;11286;45.596;5.284;2022-12-08T13:47:03;7.00;99.90
22235;DHT22;11286;45.596;5.284;2022-12-08T13:49:37;6.60;99.90
22235;DHT22;11286;45.596;5.284;2022-12-08T13:52:14;6.70;99.90
22235;DHT22;11286;45.596;5.284;2022-12-08T13:54:41;7.30;99.90
22235;DHT22;11286;45.596;5.284;2022-12-08T13:57:22;7.10;99.90
22235;DHT22;11286;45.596;5.284;2022-12-08T13:59:48;7.60;99.90
22235;DHT22;11286;45.596;5.284;2022-12-08T14:04:49;6.90;99.90
22235;DHT22;11286;45.596;5.284;2022-12-08T14:07:15;6.90;99.90
22235;DHT22;11286;45.596;5.284;2022-12-08T14:09:41;7.20;99.90
22235;DHT22;11286;45.596;5.284;2022-12-08T14:12:22;7.30;99.90
22235;DHT22;11286;45.596;5.284;2022-12-08T14:14:50;7.50;99.90
22235;DHT22;11286;45.596;5.284;2022-12-08T14:17:18;7.30;99.90
22235;DHT22;11286;45.596;5.284;2022-12-08T14:20:03;7.30;99.90
22235;DHT22;11286;45.596;5.284;2022-12-08T14:22:34;6.60;99.90
22235;DHT22;11286;45.596;5.284;2022-12-08T14:25:00;6.90;99.90
22235;DHT22;11286;45.596;5.284;2022-12-08T14:27:27;7.30;99.90
22235;DHT22;11286;45.596;5.284;2022-12-08T14:30:15;7.40;99.90
22235;DHT22;11286;45.596;5.284;2022-12-08T14:32:53;7.00;99.90
22235;DHT22;11286;45.596;5.284;2022-12-08T14:35:48;7.20;99.90
22235;DHT22;11286;45.596;5.284;2022-12-08T14:38:17;7.20;99.90
22235;DHT22;11286;45.596;5.284;2022-12-08T14:40:45;7.30;99.90
22235;DHT22;11286;45.596;5.284;2022-12-08T14:43:19;7.30;99.90
22235;DHT22;11286;45.596;5.284;2022-12-08T14:53:51;7.40;99.90
22235;DHT22;11286;45.596;5.284;2022-12-08T14:56:31;7.10;99.90
22235;DHT22;11286;45.596;5.284;2022-12-08T14:59:19;7.10;99.90
22235;DHT22;11286;45.596;5.284;2022-12-08T15:01:49;7.10;99.90
22235;DHT22;11286;45.596;5.284;2022-12-08T15:04:23;7.00;99.90
22235;DHT22;11286;45.596;5.284;2022-12-08T15:06:52;7.20;99.90
22235;DHT22;11286;45.596;5.284;2022-12-08T15:09:35;7.40;99.90
22235;DHT22;11286;45.596;5.284;2022-12-08T15:12:04;7.00;99.90
22235;DHT22;11286;45.596;5.284;2022-12-08T15:14:35;7.00;99.90
22235;DHT22;11286;45.596;5.284;2022-12-08T15:17:02;6.90;99.90
22235;DHT22;11286;45.596;5.284;2022-12-08T15:19:32;7.20;99.90
22235;DHT22;11286;45.596;5.284;2022-12-08T15:22:22;6.80;99.90
22235;DHT22;11286;45.596;5.284;2022-12-08T15:24:51;6.80;99.90
22235;DHT22;11286;45.596;5.284;2022-12-08T15:27:18;6.80;99.90
22235;DHT22;11286;45.596;5.284;2022-12-08T15:29:46;7.00;99.90
22235;DHT22;11286;45.596;5.284;2022-12-08T15:32:12;6.70;99.90
22235;DHT22;11286;45.596;5.284;2022-12-08T15:34:41;6.90;99.90
22235;DHT22;11286;45.596;5.284;2022-12-08T15:39:44;6.70;99.90
22235;DHT22;11286;45.596;5.284;2022-12-08T15:42:10;6.60;99.90
22235;DHT22;11286;45.596;5.284;2022-12-08T15:44:37;6.90;99.90
22235;DHT22;11286;45.596;5.284;2022-12-08T15:47:02;6.60;99.90
22235;DHT22;11286;45.596;5.284;2022-12-08T15:49:28;6.60;99.90
22235;DHT22;11286;45.596;5.284;2022-12-08T15:51:54;6.50;99.90
22235;DHT22;11286;45.596;5.284;2022-12-08T15:54:20;6.60;99.90
22235;DHT22;11286;45.596;5.284;2022-12-08T15:56:49;6.50;99.90
22235;DHT22;11286;45.596;5.284;2022-12-08T15:59:21;6.40;99.90
22235;DHT22;11286;45.596;5.284;2022-12-08T16:01:48;6.40;99.90
22235;DHT22;11286;45.596;5.284;2022-12-08T16:04:16;6.50;99.90
22235;DHT22;11286;45.596;5.284;2022-12-08T16:06:45;6.50;99.90
22235;DHT22;11286;45.596;5.284;2022-12-08T16:11:51;6.70;99.90
22235;DHT22;11286;45.596;5.284;2022-12-08T16:14:36;6.40;99.90
22235;DHT22;11286;45.596;5.284;2022-12-08T16:17:02;6.40;99.90
22235;DHT22;11286;45.596;5.284;2022-12-08T16:19:27;6.50;99.90
22235;DHT22;11286;45.596;5.284;2022-12-08T16:21:53;6.40;99.90
22235;DHT22;11286;45.596;5.284;2022-12-08T16:24:19;6.70;99.90
22235;DHT22;11286;45.596;5.284;2022-12-08T16:26:44;6.40;99.90
22235;DHT22;11286;45.596;5.284;2022-12-08T16:29:18;6.30;99.90
22235;DHT22;11286;45.596;5.284;2022-12-08T16:31:44;6.30;99.90
22235;DHT22;11286;45.596;5.284;2022-12-08T16:34:10;6.70;99.90
22235;DHT22;11286;45.596;5.284;2022-12-08T16:36:36;6.30;99.90
22235;DHT22;11286;45.596;5.284;2022-12-08T16:39:01;6.60;99.90
22235;DHT22;11286;45.596;5.284;2022-12-08T16:41:27;6.20;99.90
22235;DHT22;11286;45.596;5.284;2022-12-08T16:44:11;6.30;99.90
22235;DHT22;11286;45.596;5.284;2022-12-08T16:46:37;6.60;99.90
22235;DHT22;11286;45.596;5.284;2022-12-08T16:49:04;6.20;99.90
22235;DHT22;11286;45.596;5.284;2022-12-08T16:51:32;6.20;99.90
22235;DHT22;11286;45.596;5.284;2022-12-08T16:53:57;6.50;99.90
22235;DHT22;11286;45.596;5.284;2022-12-08T16:56:23;6.20;99.90
22235;DHT22;11286;45.596;5.284;2022-12-08T16:58:49;6.20;99.90
22235;DHT22;11286;45.596;5.284;2022-12-08T17:01:16;6.20;99.90
22235;DHT22;11286;45.596;5.284;2022-12-08T17:03:43;6.50;99.90
22235;DHT22;11286;45.596;5.284;2022-12-08T17:06:14;6.20;99.90
22235;DHT22;11286;45.596;5.284;2022-12-08T17:08:41;6.20;99.90
22235;DHT22;11286;45.596;5.284;2022-12-08T17:11:08;6.60;99.90
22235;DHT22;11286;45.596;5.284;2022-12-08T17:13:38;6.30;99.90
22235;DHT22;11286;45.596;5.284;2022-12-08T17:16:14;6.30;99.90
22235;DHT22;11286;45.596;5.284;2022-12-08T17:18:40;6.20;99.90
22235;DHT22;11286;45.596;5.284;2022-12-08T17:21:11;6.40;99.90
22235;DHT22;11286;45.596;5.284;2022-12-08T17:23:38;6.20;99.90
22235;DHT22;11286;45.596;5.284;2022-12-08T17:26:04;6.40;99.90
22235;DHT22;11286;45.596;5.284;2022-12-08T17:28:29;6.20;99.90
22235;DHT22;11286;45.596;5.284;2022-12-08T17:30:55;6.20;99.90
22235;DHT22;11286;45.596;5.284;2022-12-08T17:33:21;6.20;99.90
22235;DHT22;11286;45.596;5.284;2022-12-08T17:35:48;6.10;99.90
22235;DHT22;11286;45.596;5.284;2022-12-08T17:38:14;6.10;99.90
22235;DHT22;11286;45.596;5.284;2022-12-08T17:40:40;6.20;99.90
22235;DHT22;11286;45.596;5.284;2022-12-08T17:43:05;5.80;99.90
22235;DHT22;11286;45.596;5.284;2022-12-08T17:45:31;6.00;99.90
22235;DHT22;11286;45.596;5.284;2022-12-08T17:47:57;5.60;99.90
22235;DHT22;11286;45.596;5.284;2022-12-08T17:50:23;5.60;99.90
22235;DHT22;11286;45.596;5.284;2022-12-08T17:52:50;5.50;99.90